createdAt,value
2023-02-12T00:01:43.660Z,9.00
2023-02-12T00:04:11.508Z,9.00
2023-02-12T00:06:40.051Z,8.90
2023-02-12T00:09:07.867Z,8.80
2023-02-12T00:11:35.687Z,8.80
2023-02-12T00:14:03.734Z,8.90
2023-02-12T00:16:32.883Z,8.90
2023-02-12T00:19:01.021Z,9.00
2023-02-12T00:21:29.039Z,8.90
2023-02-12T00:23:56.914Z,8.90
2023-02-12T00:26:25.218Z,8.70
2023-02-12T00:28:53.596Z,8.70
2023-02-12T00:31:23.097Z,8.60
2023-02-12T00:33:52.609Z,8.80
2023-02-12T00:36:26.561Z,8.80
2023-02-12T00:38:56.066Z,8.80
2023-02-12T00:41:24.818Z,8.80
2023-02-12T00:43:52.975Z,8.80
2023-02-12T00:46:21.087Z,8.70
2023-02-12T00:48:49.216Z,8.70
2023-02-12T00:51:18.363Z,8.60
2023-02-12T00:53:46.156Z,8.50
2023-02-12T00:56:13.947Z,8.40
2023-02-12T00:58:41.906Z,8.40
2023-02-12T01:01:09.856Z,8.20
2023-02-12T01:03:38.488Z,8.10
2023-02-12T01:06:06.841Z,8.10
2023-02-12T01:08:36.171Z,8.20
2023-02-12T01:11:05.621Z,8.40
2023-02-12T01:13:34.844Z,8.40
2023-02-12T01:16:04.569Z,8.50
2023-02-12T01:18:32.482Z,8.60
2023-02-12T01:21:01.302Z,8.60
2023-02-12T01:23:29.193Z,8.70
2023-02-12T01:25:59.667Z,8.80
2023-02-12T01:28:27.503Z,8.90
2023-02-12T01:30:55.379Z,9.00
2023-02-12T01:33:23.217Z,9.00
2023-02-12T01:35:51.023Z,9.20
2023-02-12T01:38:18.803Z,9.20
2023-02-12T01:40:46.568Z,9.20
2023-02-12T01:43:15.867Z,9.20
2023-02-12T01:46:01.526Z,9.20
2023-02-12T01:48:33.455Z,9.10
2023-02-12T01:51:04.184Z,9.10
2023-02-12T01:53:37.019Z,9.20
2023-02-12T01:56:05.568Z,9.10
2023-02-12T01:58:38.485Z,8.90
2023-02-12T02:01:10.640Z,8.80
2023-02-12T02:03:42.698Z,8.80
2023-02-12T02:06:13.536Z,8.70
2023-02-12T02:08:42.340Z,8.70
2023-02-12T02:11:24.661Z,8.70
2023-02-12T02:14:12.278Z,8.70
2023-02-12T02:16:44.527Z,8.80
2023-02-12T02:19:25.333Z,8.80
2023-02-12T02:22:04.709Z,8.70
2023-02-12T02:25:08.912Z,8.60
2023-02-12T02:27:46.985Z,8.70
2023-02-12T02:30:31.489Z,8.80
2023-02-12T02:33:14.076Z,8.90
2023-02-12T02:35:48.563Z,9.10
2023-02-12T02:38:24.521Z,9.00
2023-02-12T02:40:59.724Z,9.10
2023-02-12T02:43:32.924Z,9.00
2023-02-12T02:46:08.205Z,9.00
2023-02-12T02:48:40.714Z,8.90
2023-02-12T02:51:12.926Z,8.90
2023-02-12T02:53:45.710Z,8.90
2023-02-12T02:56:18.655Z,8.90
2023-02-12T02:58:53.445Z,9.00
2023-02-12T03:01:26.904Z,9.00
2023-02-12T03:04:01.687Z,9.10
2023-02-12T03:06:35.388Z,9.30
2023-02-12T03:09:06.711Z,9.40
2023-02-12T03:11:35.768Z,9.50
2023-02-12T03:18:14.599Z,9.60
2023-02-12T03:20:46.270Z,9.60
2023-02-12T03:23:17.602Z,9.70
2023-02-12T03:25:54.210Z,9.70
2023-02-12T03:28:27.512Z,9.70
2023-02-12T03:31:03.957Z,9.80
2023-02-12T03:33:42.788Z,9.90
2023-02-12T03:36:20.906Z,9.90
2023-02-12T03:38:52.781Z,9.80
2023-02-12T03:41:26.750Z,9.90
2023-02-12T03:44:00.711Z,9.90
2023-02-12T03:46:37.118Z,9.90
2023-02-12T03:49:11.405Z,9.80
2023-02-12T03:51:41.607Z,9.80
2023-02-12T03:54:11.713Z,9.80
2023-02-12T03:56:43.735Z,9.80
2023-02-12T03:59:11.739Z,9.80
2023-02-12T04:01:39.690Z,9.70
2023-02-12T04:04:10.553Z,9.70
2023-02-12T04:06:38.870Z,9.70
2023-02-12T04:09:09.513Z,9.80
2023-02-12T04:11:48.321Z,9.80
2023-02-12T04:14:25.683Z,9.80
2023-02-12T04:17:01.000Z,9.80
2023-02-12T04:19:36.257Z,9.80
2023-02-12T04:22:15.969Z,9.80
2023-02-12T04:24:53.893Z,9.80
2023-02-12T04:27:25.537Z,9.80
2023-02-12T04:29:58.673Z,9.90
2023-02-12T04:32:31.628Z,9.80
2023-02-12T04:35:08.860Z,9.80
2023-02-12T04:37:42.288Z,9.70
2023-02-12T04:40:13.805Z,9.70
2023-02-12T04:42:44.888Z,9.70
2023-02-12T04:45:14.822Z,9.60
2023-02-12T04:47:42.908Z,9.40
2023-02-12T04:50:13.022Z,9.40
2023-02-12T04:52:41.011Z,9.40
2023-02-12T04:55:09.257Z,9.40
2023-02-12T04:57:37.125Z,9.40
2023-02-12T05:00:06.182Z,9.40
2023-02-12T05:02:35.370Z,9.50
2023-02-12T05:05:03.399Z,9.60
2023-02-12T05:07:32.691Z,9.70
2023-02-12T05:10:00.517Z,9.60
2023-02-12T05:12:28.356Z,9.60
2023-02-12T05:14:56.222Z,9.50
2023-02-12T05:17:24.453Z,9.50
2023-02-12T05:19:52.329Z,9.30
2023-02-12T05:22:20.387Z,9.20
2023-02-12T05:24:49.609Z,8.90
2023-02-12T05:27:17.511Z,8.90
2023-02-12T05:29:45.328Z,9.00
2023-02-12T05:32:13.374Z,9.00
2023-02-12T05:34:41.448Z,9.00
2023-02-12T05:37:09.534Z,9.10
2023-02-12T05:39:37.319Z,9.10
2023-02-12T05:42:06.620Z,9.20
2023-02-12T05:44:34.491Z,9.20
2023-02-12T05:47:02.338Z,9.20
2023-02-12T05:49:30.185Z,9.20
2023-02-12T05:51:58.021Z,9.30
2023-02-12T05:54:25.940Z,9.30
2023-02-12T05:56:53.781Z,9.40
2023-02-12T05:59:24.397Z,9.40
2023-02-12T06:01:53.800Z,9.50
2023-02-12T06:04:24.455Z,9.50
2023-02-12T06:06:53.002Z,9.40
2023-02-12T06:09:21.192Z,9.30
2023-02-12T06:11:49.033Z,9.20
2023-02-12T06:14:18.731Z,9.20
2023-02-12T06:16:49.370Z,9.30
2023-02-12T06:19:18.366Z,9.30
2023-02-12T06:21:46.256Z,9.30
2023-02-12T06:24:16.060Z,9.40
2023-02-12T06:26:44.093Z,9.40
2023-02-12T06:29:13.172Z,9.40
2023-02-12T06:31:41.134Z,9.40
2023-02-12T06:34:12.265Z,9.30
2023-02-12T06:36:41.876Z,9.40
2023-02-12T06:39:10.202Z,9.40
2023-02-12T06:41:38.192Z,9.40
2023-02-12T06:44:07.227Z,9.30
2023-02-12T06:46:35.374Z,9.40
2023-02-12T06:49:03.338Z,9.40
2023-02-12T06:51:32.581Z,9.40
2023-02-12T06:54:00.497Z,9.40
2023-02-12T06:56:28.730Z,9.50
2023-02-12T06:58:58.381Z,9.60
2023-02-12T07:01:27.991Z,9.50
2023-02-12T07:03:57.857Z,9.60
2023-02-12T07:06:27.356Z,9.50
2023-02-12T07:08:56.827Z,9.50
2023-02-12T07:11:25.561Z,9.40
2023-02-12T07:13:53.522Z,9.40
2023-02-12T07:16:22.099Z,9.30
2023-02-12T07:18:50.323Z,9.30
2023-02-12T07:21:19.493Z,9.10
2023-02-12T07:23:51.080Z,8.90
2023-02-12T07:26:22.230Z,8.70
2023-02-12T07:28:50.727Z,8.50
2023-02-12T07:31:20.685Z,8.30
2023-02-12T07:33:49.187Z,8.10
2023-02-12T07:36:19.219Z,7.90
2023-02-12T07:38:47.521Z,7.90
2023-02-12T07:41:18.017Z,7.90
2023-02-12T07:43:48.300Z,7.90
2023-02-12T07:46:18.943Z,7.90
2023-02-12T07:48:47.554Z,7.90
2023-02-12T07:51:19.117Z,7.90
2023-02-12T07:53:47.029Z,7.90
2023-02-12T07:56:17.201Z,7.90
2023-02-12T07:58:47.776Z,7.90
2023-02-12T08:01:18.300Z,7.90
2023-02-12T08:03:47.569Z,7.90
2023-02-12T08:06:17.155Z,7.90
2023-02-12T08:08:45.195Z,7.90
2023-02-12T08:11:14.866Z,7.80
2023-02-12T08:13:43.034Z,7.80
2023-02-12T08:16:14.345Z,7.80
2023-02-12T08:18:42.702Z,7.90
2023-02-12T08:21:12.389Z,7.90
2023-02-12T08:23:40.697Z,8.00
2023-02-12T08:26:11.149Z,8.00
2023-02-12T08:28:41.332Z,8.00
2023-02-12T08:31:10.992Z,8.00
2023-02-12T08:33:40.234Z,8.10
2023-02-12T08:36:10.919Z,8.10
2023-02-12T08:38:40.076Z,8.10
2023-02-12T08:41:09.743Z,8.10
2023-02-12T08:43:38.117Z,8.20
2023-02-12T08:46:08.015Z,8.10
2023-02-12T08:48:36.478Z,8.20
2023-02-12T08:51:08.795Z,8.20
2023-02-12T08:53:37.535Z,8.20
2023-02-12T08:56:06.003Z,8.20
2023-02-12T08:58:34.159Z,8.30
2023-02-12T09:01:02.409Z,8.30
2023-02-12T09:03:30.254Z,8.30
2023-02-12T09:05:58.558Z,8.50
2023-02-12T09:08:27.832Z,8.60
2023-02-12T09:10:55.711Z,8.40
2023-02-12T09:13:23.830Z,8.40
2023-02-12T09:15:51.987Z,8.30
2023-02-12T09:18:19.822Z,8.30
2023-02-12T09:20:47.662Z,8.30
2023-02-12T09:23:15.853Z,8.20
2023-02-12T09:25:46.166Z,8.10
2023-02-12T09:28:15.467Z,8.10
2023-02-12T09:30:43.354Z,8.20
2023-02-12T09:33:12.783Z,8.20
2023-02-12T09:35:41.258Z,8.10
2023-02-12T09:38:09.877Z,8.10
2023-02-12T09:40:44.982Z,8.20
2023-02-12T09:43:32.297Z,8.30
2023-02-12T09:46:06.696Z,8.30
2023-02-12T09:48:46.532Z,8.40
2023-02-12T09:51:15.238Z,8.50
2023-02-12T09:53:46.822Z,8.50
2023-02-12T09:56:18.391Z,8.50
2023-02-12T09:58:52.987Z,8.50
2023-02-12T10:01:22.826Z,8.50
2023-02-12T10:03:52.479Z,8.60
2023-02-12T10:06:22.157Z,8.50
2023-02-12T10:09:02.480Z,8.50
2023-02-12T10:11:41.430Z,8.50
2023-02-12T10:14:28.335Z,8.60
2023-02-12T10:17:04.501Z,8.70
2023-02-12T10:19:57.485Z,8.70
2023-02-12T10:22:37.565Z,8.70
2023-02-12T10:25:22.572Z,8.70
2023-02-12T10:27:51.620Z,8.70
2023-02-12T10:30:24.765Z,8.70
2023-02-12T10:32:56.289Z,8.70
2023-02-12T10:35:25.934Z,8.70
2023-02-12T10:37:58.581Z,8.60
2023-02-12T10:40:29.985Z,8.60
2023-02-12T10:42:58.748Z,8.70
2023-02-12T10:45:31.583Z,8.60
2023-02-12T10:48:09.844Z,8.50
2023-02-12T10:51:03.770Z,8.60
2023-02-12T10:53:34.642Z,8.70
2023-02-12T10:56:17.278Z,8.70
2023-02-12T10:58:54.642Z,8.60
2023-02-12T11:01:27.767Z,8.60
2023-02-12T11:03:57.031Z,8.60
2023-02-12T11:06:27.697Z,8.60
2023-02-12T11:08:56.510Z,8.80
2023-02-12T11:11:28.001Z,8.90
2023-02-12T11:13:59.143Z,8.90
2023-02-12T11:16:34.051Z,8.90
2023-02-12T11:19:05.693Z,8.90
2023-02-12T11:21:34.420Z,9.00
2023-02-12T11:24:23.802Z,9.00
2023-02-12T11:26:51.636Z,9.00
2023-02-12T11:29:21.238Z,9.00
2023-02-12T11:32:03.916Z,9.10
2023-02-12T11:34:31.854Z,9.20
2023-02-12T11:36:59.881Z,9.20
2023-02-12T11:39:32.296Z,9.30
2023-02-12T11:42:03.776Z,9.40
2023-02-12T11:44:36.333Z,9.50
2023-02-12T11:47:09.043Z,9.50
2023-02-12T11:49:44.146Z,9.60
2023-02-12T11:52:21.520Z,9.60
2023-02-12T11:54:51.147Z,9.60
2023-02-12T11:57:38.221Z,9.70
2023-02-12T12:00:13.385Z,9.70
2023-02-12T12:02:46.394Z,9.60
2023-02-12T12:05:19.254Z,9.60
2023-02-12T12:07:52.944Z,9.60
2023-02-12T12:10:27.001Z,9.70
2023-02-12T12:12:58.270Z,9.70
2023-02-12T12:15:48.170Z,9.80
2023-02-12T12:18:43.853Z,10.00
2023-02-12T12:21:18.312Z,10.20
2023-02-12T12:23:53.534Z,10.40
2023-02-12T12:26:25.958Z,10.50
2023-02-12T12:29:00.402Z,10.70
2023-02-12T12:31:33.060Z,10.70
2023-02-12T12:34:09.133Z,10.90
2023-02-12T12:37:02.254Z,11.00
2023-02-12T12:39:35.746Z,11.20
2023-02-12T12:42:28.249Z,11.40
2023-02-12T12:45:15.628Z,11.40
2023-02-12T12:47:58.555Z,11.40
2023-02-12T12:50:46.578Z,11.40
2023-02-12T12:53:29.050Z,11.40
2023-02-12T12:56:35.844Z,11.40
2023-02-12T12:59:22.053Z,11.50
2023-02-12T13:02:04.165Z,11.60
2023-02-12T13:04:55.529Z,11.50
2023-02-12T13:07:45.772Z,11.40
2023-02-12T13:10:25.532Z,11.40
2023-02-12T13:13:14.529Z,11.60
2023-02-12T13:15:47.915Z,11.60
2023-02-12T13:18:24.437Z,11.60
2023-02-12T13:20:58.640Z,11.60
2023-02-12T13:23:39.858Z,11.60
2023-02-12T13:26:15.239Z,11.60
2023-02-12T13:28:47.614Z,11.40
2023-02-12T13:31:32.449Z,11.30
2023-02-12T13:34:05.418Z,11.30
2023-02-12T13:36:34.205Z,11.20
2023-02-12T13:39:11.300Z,11.30
2023-02-12T13:41:40.881Z,11.30
2023-02-12T13:44:17.866Z,11.10
2023-02-12T13:47:01.379Z,11.20
2023-02-12T13:49:42.411Z,11.30
2023-02-12T13:52:15.232Z,11.30
2023-02-12T13:54:55.859Z,11.10
2023-02-12T13:57:23.883Z,10.90
2023-02-12T13:59:53.726Z,10.90
2023-02-12T14:02:30.692Z,10.80
2023-02-12T14:05:00.527Z,10.70
2023-02-12T14:07:43.372Z,10.60
2023-02-12T14:10:21.994Z,10.70
2023-02-12T14:12:50.619Z,10.70
2023-02-12T14:15:34.788Z,10.70
2023-02-12T14:18:09.213Z,10.70
2023-02-12T14:20:39.991Z,10.60
2023-02-12T14:23:24.298Z,10.60
2023-02-12T14:26:09.633Z,10.70
2023-02-12T14:28:52.748Z,10.50
2023-02-12T14:31:38.974Z,10.50
2023-02-12T14:34:48.012Z,10.40
2023-02-12T14:37:38.246Z,10.30
2023-02-12T14:40:31.699Z,10.20
2023-02-12T14:43:02.454Z,10.20
2023-02-12T14:45:35.454Z,10.30
2023-02-12T14:48:04.710Z,10.20
2023-02-12T14:50:40.413Z,10.10
2023-02-12T14:53:23.494Z,10.10
2023-02-12T14:55:52.829Z,10.10
2023-02-12T14:58:24.396Z,10.00
2023-02-12T15:00:56.150Z,10.00
2023-02-12T15:03:29.911Z,10.10
2023-02-12T15:06:05.383Z,10.10
2023-02-12T15:08:40.894Z,10.10
2023-02-12T15:11:21.184Z,10.00
2023-02-12T15:13:56.357Z,9.90
2023-02-12T15:16:33.101Z,9.90
2023-02-12T15:19:06.505Z,9.80
2023-02-12T15:21:35.047Z,9.80
2023-02-12T15:24:06.331Z,9.80
2023-02-12T15:26:37.423Z,9.80
2023-02-12T15:29:07.895Z,9.70
2023-02-12T15:31:36.492Z,9.70
2023-02-12T15:34:05.856Z,9.80
2023-02-12T15:36:35.086Z,9.90
2023-02-12T15:39:05.191Z,9.80
2023-02-12T15:41:39.556Z,9.80
2023-02-12T15:44:22.820Z,9.70
2023-02-12T15:46:59.483Z,9.60
2023-02-12T15:49:30.056Z,9.60
2023-02-12T15:51:59.705Z,9.50
2023-02-12T15:54:28.716Z,9.50
2023-02-12T15:56:56.760Z,9.50
2023-02-12T15:59:29.342Z,9.40
2023-02-12T16:02:00.535Z,9.30
2023-02-12T16:04:31.934Z,9.30
2023-02-12T16:07:00.489Z,9.20
2023-02-12T16:09:32.062Z,9.10
2023-02-12T16:12:03.046Z,9.10
2023-02-12T16:14:43.328Z,9.00
2023-02-12T16:17:22.864Z,9.00
2023-02-12T16:19:58.827Z,9.00
2023-02-12T16:22:31.769Z,8.90
2023-02-12T16:25:01.061Z,8.90
2023-02-12T16:27:31.759Z,8.80
2023-02-12T16:30:04.448Z,8.80
2023-02-12T16:32:37.636Z,8.70
2023-02-12T16:35:23.125Z,8.70
2023-02-12T16:37:52.303Z,8.60
2023-02-12T16:40:36.889Z,8.50
2023-02-12T16:43:26.692Z,8.50
2023-02-12T16:46:06.073Z,8.40
2023-02-12T16:48:40.102Z,8.40
2023-02-12T16:51:20.634Z,8.30
2023-02-12T16:53:50.075Z,8.20
2023-02-12T16:56:21.157Z,8.10
2023-02-12T16:58:50.845Z,8.10
2023-02-12T17:01:24.465Z,8.00
2023-02-12T17:03:54.064Z,8.00
2023-02-12T17:06:23.420Z,8.00
2023-02-12T17:08:52.218Z,7.90
2023-02-12T17:11:20.981Z,7.90
2023-02-12T17:13:50.761Z,7.80
2023-02-12T17:16:30.287Z,7.80
2023-02-12T17:18:58.930Z,7.70
2023-02-12T17:21:29.713Z,7.70
2023-02-12T17:23:57.621Z,7.70
2023-02-12T17:26:26.460Z,7.60
2023-02-12T17:28:54.502Z,7.70
2023-02-12T17:31:24.205Z,7.60
2023-02-12T17:33:52.096Z,7.50
2023-02-12T17:36:19.935Z,7.50
2023-02-12T17:38:47.731Z,7.50
2023-02-12T17:41:15.590Z,7.40
2023-02-12T17:43:43.460Z,7.30
2023-02-12T17:46:12.869Z,7.40
2023-02-12T17:48:42.052Z,7.30
2023-02-12T17:51:11.453Z,7.30
2023-02-12T17:53:39.356Z,7.30
2023-02-12T17:56:11.742Z,7.30
2023-02-12T17:58:40.192Z,7.30
2023-02-12T18:01:09.156Z,7.20
2023-02-12T18:03:37.748Z,7.20
2023-02-12T18:06:11.018Z,7.20
2023-02-12T18:08:38.928Z,7.20
2023-02-12T18:11:07.357Z,7.10
2023-02-12T18:13:35.183Z,7.10
2023-02-12T18:16:03.756Z,7.10
2023-02-12T18:18:32.485Z,7.00
2023-02-12T18:21:00.326Z,7.10
2023-02-12T18:23:29.486Z,7.10
2023-02-12T18:25:57.343Z,7.10
2023-02-12T18:28:25.219Z,7.10
2023-02-12T18:30:58.402Z,7.10
2023-02-12T18:33:26.641Z,7.10
2023-02-12T18:35:59.436Z,7.10
2023-02-12T18:38:29.223Z,7.10
2023-02-12T18:40:59.651Z,7.10
2023-02-12T18:43:29.688Z,7.10
2023-02-12T18:45:57.529Z,7.20
2023-02-12T18:48:25.455Z,7.20
2023-02-12T18:50:55.309Z,7.30
2023-02-12T18:53:23.418Z,7.30
2023-02-12T18:55:52.816Z,7.40
2023-02-12T18:58:20.703Z,7.50
2023-02-12T19:00:48.859Z,7.50
2023-02-12T19:03:17.430Z,7.50
2023-02-12T19:05:45.267Z,7.60
2023-02-12T19:08:13.161Z,7.60
2023-02-12T19:10:42.157Z,7.70
2023-02-12T19:13:11.799Z,7.70
2023-02-12T19:15:40.410Z,7.70
2023-02-12T19:18:08.830Z,7.70
2023-02-12T19:20:40.164Z,7.70
2023-02-12T19:23:08.065Z,7.70
2023-02-12T19:25:39.553Z,7.70
2023-02-12T19:28:07.384Z,7.70
2023-02-12T19:30:37.416Z,7.80
2023-02-12T19:33:05.977Z,7.80
2023-02-12T19:35:34.058Z,7.80
2023-02-12T19:38:02.076Z,7.80
2023-02-12T19:40:29.908Z,7.80
2023-02-12T19:42:57.708Z,7.90
2023-02-12T19:45:25.550Z,7.80
2023-02-12T19:47:54.689Z,7.90
2023-02-12T19:50:22.501Z,7.90
2023-02-12T19:52:50.832Z,7.90
2023-02-12T19:55:18.784Z,7.90
2023-02-12T19:57:47.914Z,8.00
2023-02-12T20:00:16.491Z,8.00
2023-02-12T20:02:44.329Z,8.00
2023-02-12T20:05:13.539Z,8.00
2023-02-12T20:07:41.390Z,8.00
2023-02-12T20:10:09.759Z,8.00
2023-02-12T20:12:41.043Z,8.00
2023-02-12T20:15:09.805Z,8.00
2023-02-12T20:17:37.610Z,8.00
2023-02-12T20:20:07.236Z,7.90
2023-02-12T20:22:37.052Z,8.00
2023-02-12T20:25:04.966Z,8.00
2023-02-12T20:27:34.380Z,8.00
2023-02-12T20:30:02.235Z,8.00
2023-02-12T20:32:30.044Z,8.00
2023-02-12T20:34:57.948Z,8.00
2023-02-12T20:37:25.776Z,8.00
2023-02-12T20:39:54.931Z,8.00
2023-02-12T20:42:22.762Z,8.00
2023-02-12T20:44:50.826Z,8.00
2023-02-12T20:47:18.687Z,7.90
2023-02-12T20:49:46.472Z,7.90
2023-02-12T20:52:14.440Z,7.90
2023-02-12T20:54:42.319Z,7.90
2023-02-12T20:57:11.624Z,7.90
2023-02-12T20:59:39.609Z,7.90
2023-02-12T21:02:08.180Z,7.90
2023-02-12T21:04:35.969Z,8.00
2023-02-12T21:07:03.906Z,8.00
2023-02-12T21:09:31.721Z,8.00
2023-02-12T21:11:59.527Z,8.00
2023-02-12T21:14:28.707Z,8.00
2023-02-12T21:16:57.419Z,8.00
2023-02-12T21:19:26.479Z,8.00
2023-02-12T21:21:54.954Z,8.00
2023-02-12T21:24:24.720Z,8.00
2023-02-12T21:26:53.812Z,8.00
2023-02-12T21:29:22.832Z,8.10
2023-02-12T21:31:52.311Z,8.10
2023-02-12T21:34:22.212Z,8.10
2023-02-12T21:36:51.169Z,8.10
2023-02-12T21:39:24.533Z,8.00
2023-02-12T21:41:54.879Z,8.10
2023-02-12T21:44:24.453Z,8.00
2023-02-12T21:46:54.546Z,8.00
2023-02-12T21:49:28.851Z,8.00
2023-02-12T21:51:58.510Z,7.90
2023-02-12T21:54:27.024Z,8.00
2023-02-12T21:56:54.932Z,7.90
2023-02-12T21:59:24.623Z,8.00
2023-02-12T22:01:58.292Z,8.00
2023-02-12T22:04:26.692Z,8.00
2023-02-12T22:06:56.411Z,8.10
2023-02-12T22:09:24.567Z,8.00
2023-02-12T22:11:53.137Z,8.00
2023-02-12T22:14:22.318Z,8.00
2023-02-12T22:16:50.500Z,8.00
2023-02-12T22:19:19.886Z,8.00
2023-02-12T22:21:51.283Z,8.00
2023-02-12T22:24:19.231Z,8.00
2023-02-12T22:26:47.113Z,8.10
2023-02-12T22:29:16.807Z,8.10
2023-02-12T22:31:46.558Z,8.10
2023-02-12T22:34:16.484Z,8.10
2023-02-12T22:36:46.654Z,8.10
2023-02-12T22:39:17.419Z,8.00
2023-02-12T22:41:45.729Z,8.10
2023-02-12T22:44:15.027Z,8.10
2023-02-12T22:46:43.269Z,8.20
2023-02-12T22:49:11.462Z,8.10
2023-02-12T22:51:40.023Z,8.10
2023-02-12T22:54:13.298Z,8.00
2023-02-12T22:56:41.323Z,8.00
2023-02-12T22:59:10.791Z,8.10
2023-02-12T23:01:39.635Z,8.10
2023-02-12T23:04:07.804Z,8.10
2023-02-12T23:06:35.829Z,8.10
2023-02-12T23:09:06.013Z,8.00
2023-02-12T23:11:35.278Z,8.10
2023-02-12T23:14:03.140Z,8.10
2023-02-12T23:16:31.059Z,8.10
2023-02-12T23:19:00.659Z,8.10
2023-02-12T23:21:30.133Z,8.10
2023-02-12T23:23:59.737Z,8.00
2023-02-12T23:26:28.511Z,8.00
2023-02-12T23:28:58.104Z,7.90
2023-02-12T23:31:27.029Z,7.90
2023-02-12T23:33:55.059Z,7.80
2023-02-12T23:36:22.996Z,7.70
2023-02-12T23:38:50.868Z,7.60
2023-02-12T23:41:18.814Z,7.50
2023-02-12T23:43:46.759Z,7.40
2023-02-12T23:46:16.086Z,7.40
2023-02-12T23:48:45.493Z,7.40
2023-02-12T23:51:13.533Z,7.40
2023-02-12T23:53:41.444Z,7.30
2023-02-12T23:56:09.410Z,7.30
2023-02-12T23:58:37.355Z,7.30
